createdAt,value
2019-02-21T00:01:51.351Z,1.60
2019-02-21T00:04:22.648Z,1.70
2019-02-21T00:06:53.764Z,1.70
2019-02-21T00:09:24.355Z,1.60
2019-02-21T00:11:55.146Z,1.50
2019-02-21T00:14:26.237Z,1.50
2019-02-21T00:16:57.639Z,1.50
2019-02-21T00:19:29.214Z,1.40
2019-02-21T00:21:59.714Z,1.50
2019-02-21T00:24:30.265Z,1.40
2019-02-21T00:27:00.778Z,1.40
2019-02-21T00:29:31.404Z,1.50
2019-02-21T00:32:02.141Z,1.50
2019-02-21T00:34:33.089Z,1.50
2019-02-21T00:37:04.237Z,1.50
2019-02-21T00:39:35.119Z,1.60
2019-02-21T00:42:06.111Z,1.60
2019-02-21T00:44:37.105Z,1.50
2019-02-21T00:47:07.979Z,1.50
2019-02-21T00:49:38.554Z,1.40
2019-02-21T00:52:09.148Z,1.20
2019-02-21T00:54:39.756Z,1.20
2019-02-21T00:57:10.842Z,1.20
2019-02-21T00:59:41.784Z,1.20
2019-02-21T01:02:12.804Z,1.10
2019-02-21T01:04:43.756Z,1.10
2019-02-21T01:07:14.684Z,1.00
2019-02-21T01:09:45.676Z,1.00
2019-02-21T01:12:16.773Z,1.00
2019-02-21T01:14:47.304Z,1.10
2019-02-21T01:17:18.240Z,1.30
2019-02-21T01:19:49.305Z,1.10
2019-02-21T01:22:19.924Z,1.10
2019-02-21T01:24:51.042Z,1.20
2019-02-21T01:27:22.012Z,1.20
2019-02-21T01:29:52.957Z,1.10
2019-02-21T01:32:23.881Z,1.10
2019-02-21T01:34:54.744Z,1.00
2019-02-21T01:37:26.097Z,1.10
2019-02-21T01:39:56.705Z,1.10
2019-02-21T01:42:27.197Z,1.10
2019-02-21T01:44:58.209Z,1.10
2019-02-21T01:47:29.115Z,1.00
2019-02-21T01:50:00.231Z,0.90
2019-02-21T01:52:31.137Z,0.90
2019-02-21T01:55:02.075Z,0.90
2019-02-21T01:57:33.077Z,0.80
2019-02-21T02:00:04.252Z,0.80
2019-02-21T02:02:35.486Z,0.80
2019-02-21T02:05:06.968Z,0.70
2019-02-21T02:07:38.456Z,0.70
2019-02-21T02:10:09.838Z,0.80
2019-02-21T02:12:40.900Z,0.80
2019-02-21T02:15:12.136Z,0.60
2019-02-21T02:17:43.161Z,0.70
2019-02-21T02:20:14.109Z,0.80
2019-02-21T02:22:44.677Z,0.80
2019-02-21T02:25:15.800Z,0.90
2019-02-21T02:27:46.552Z,1.00
2019-02-21T02:30:17.469Z,1.10
2019-02-21T02:32:48.490Z,1.00
2019-02-21T02:35:19.453Z,1.00
2019-02-21T02:37:50.368Z,1.10
2019-02-21T02:40:21.130Z,1.00
2019-02-21T02:42:52.061Z,1.00
2019-02-21T02:45:22.608Z,1.10
2019-02-21T02:47:53.239Z,1.10
2019-02-21T02:50:23.856Z,1.10
2019-02-21T02:52:54.368Z,0.90
2019-02-21T02:55:24.938Z,0.90
2019-02-21T02:57:55.740Z,0.90
2019-02-21T03:00:26.332Z,0.90
2019-02-21T03:02:57.122Z,0.90
2019-02-21T03:05:28.181Z,1.00
2019-02-21T03:07:58.788Z,1.00
2019-02-21T03:10:29.344Z,1.00
2019-02-21T03:12:59.960Z,1.10
2019-02-21T03:15:30.589Z,1.20
2019-02-21T03:18:01.182Z,1.20
2019-02-21T03:20:31.996Z,1.10
2019-02-21T03:23:03.004Z,1.20
2019-02-21T03:25:33.845Z,1.20
2019-02-21T03:28:04.785Z,1.20
2019-02-21T03:30:35.731Z,1.00
2019-02-21T03:33:06.856Z,1.00
2019-02-21T03:35:37.827Z,0.90
2019-02-21T03:38:08.762Z,0.80
2019-02-21T03:40:39.811Z,0.80
2019-02-21T03:43:10.835Z,0.80
2019-02-21T03:45:41.761Z,0.80
2019-02-21T03:48:12.692Z,0.80
2019-02-21T03:50:43.676Z,0.70
2019-02-21T03:53:14.580Z,0.70
2019-02-21T03:55:45.549Z,0.70
2019-02-21T03:58:16.570Z,0.70
2019-02-21T04:00:47.520Z,0.80
2019-02-21T04:03:18.429Z,0.70
2019-02-21T04:05:49.331Z,0.60
2019-02-21T04:08:20.320Z,0.60
2019-02-21T04:10:51.397Z,0.60
2019-02-21T04:13:22.402Z,0.80
2019-02-21T04:15:53.731Z,0.70
2019-02-21T04:18:24.801Z,0.70
2019-02-21T04:20:55.858Z,0.60
2019-02-21T04:23:26.789Z,0.70
2019-02-21T04:25:57.727Z,0.60
2019-02-21T04:28:28.653Z,0.50
2019-02-21T04:30:59.825Z,0.60
2019-02-21T04:33:30.956Z,0.60
2019-02-21T04:36:02.826Z,0.60
2019-02-21T04:38:33.754Z,0.50
2019-02-21T04:41:04.598Z,0.50
2019-02-21T04:43:36.569Z,0.50
2019-02-21T04:46:07.522Z,0.50
2019-02-21T04:48:38.741Z,0.50
2019-02-21T04:51:09.700Z,0.50
2019-02-21T04:53:40.713Z,0.40
2019-02-21T04:56:11.765Z,0.50
2019-02-21T04:58:42.914Z,0.50
2019-02-21T05:01:13.548Z,0.40
2019-02-21T05:03:44.176Z,0.40
2019-02-21T05:06:15.150Z,0.50
2019-02-21T05:08:45.754Z,0.40
2019-02-21T05:11:17.447Z,0.40
2019-02-21T05:13:48.124Z,0.50
2019-02-21T05:16:18.992Z,0.50
2019-02-21T05:18:50.285Z,0.30
2019-02-21T05:21:21.043Z,0.40
2019-02-21T05:23:51.969Z,0.40
2019-02-21T05:26:28.753Z,0.40
2019-02-21T05:29:00.135Z,0.40
2019-02-21T05:31:52.458Z,0.40
2019-02-21T05:34:38.005Z,0.40
2019-02-21T05:37:43.222Z,0.40
2019-02-21T05:40:30.948Z,0.40
2019-02-21T05:43:23.893Z,0.50
2019-02-21T05:46:13.893Z,0.40
2019-02-21T05:48:57.038Z,0.50
2019-02-21T05:51:33.181Z,0.60
2019-02-21T05:54:21.241Z,0.60
2019-02-21T05:56:57.583Z,0.60
2019-02-21T05:59:50.150Z,0.60
2019-02-21T06:02:33.163Z,0.60
2019-02-21T06:05:19.390Z,0.80
2019-02-21T06:08:06.674Z,0.90
2019-02-21T06:10:47.453Z,0.90
2019-02-21T06:13:44.683Z,1.00
2019-02-21T06:16:26.102Z,1.10
2019-02-21T06:19:18.713Z,1.40
2019-02-21T06:22:09.973Z,2.30
2019-02-21T06:24:39.148Z,3.50
2019-02-21T06:27:18.106Z,4.30
2019-02-21T06:29:56.804Z,4.80
2019-02-21T06:32:27.869Z,5.60
2019-02-21T06:34:58.775Z,6.00
2019-02-21T06:37:29.733Z,6.50
2019-02-21T06:40:00.766Z,7.40
2019-02-21T06:42:32.603Z,8.10
2019-02-21T06:45:04.714Z,9.00
2019-02-21T06:47:35.659Z,9.30
2019-02-21T06:50:06.686Z,9.80
2019-02-21T06:52:37.667Z,10.60
2019-02-21T06:55:08.866Z,11.30
2019-02-21T06:57:40.037Z,11.50
2019-02-21T07:00:11.105Z,11.70
2019-02-21T07:02:42.207Z,11.70
2019-02-21T07:05:13.121Z,11.60
2019-02-21T07:07:43.973Z,11.10
2019-02-21T07:10:14.908Z,10.50
2019-02-21T07:12:45.961Z,9.70
2019-02-21T07:15:16.995Z,9.30
2019-02-21T07:17:49.531Z,9.00
2019-02-21T07:20:20.628Z,8.60
2019-02-21T07:22:51.560Z,8.60
2019-02-21T07:25:33.744Z,8.60
2019-02-21T07:28:11.656Z,8.50
2019-02-21T07:30:37.501Z,8.50
2019-02-21T07:33:08.558Z,8.40
2019-02-21T07:35:39.462Z,8.40
2019-02-21T07:38:10.417Z,8.30
2019-02-21T07:40:41.454Z,8.30
2019-02-21T07:43:13.429Z,8.20
2019-02-21T07:45:44.459Z,8.30
2019-02-21T07:48:15.450Z,8.20
2019-02-21T07:50:46.326Z,8.30
2019-02-21T07:53:17.183Z,8.30
2019-02-21T07:55:47.869Z,8.30
2019-02-21T07:58:18.449Z,8.20
2019-02-21T08:00:49.072Z,8.20
2019-02-21T08:03:29.977Z,8.30
2019-02-21T08:05:52.192Z,8.30
2019-02-21T08:08:22.932Z,8.20
2019-02-21T08:10:53.562Z,8.30
2019-02-21T08:13:25.628Z,8.30
2019-02-21T08:15:56.545Z,8.40
2019-02-21T08:18:27.498Z,8.50
2019-02-21T08:20:58.428Z,8.10
2019-02-21T08:23:29.392Z,8.20
2019-02-21T08:26:00.306Z,8.40
2019-02-21T08:28:30.944Z,8.40
2019-02-21T08:31:01.488Z,8.20
2019-02-21T08:33:36.224Z,8.20
2019-02-21T08:36:07.248Z,8.00
2019-02-21T08:38:37.798Z,7.80
2019-02-21T08:41:08.752Z,7.70
2019-02-21T08:43:39.362Z,7.60
2019-02-21T08:46:10.712Z,7.50
2019-02-21T08:48:41.560Z,7.20
2019-02-21T08:51:12.153Z,7.20
2019-02-21T08:53:42.843Z,7.10
2019-02-21T08:56:13.753Z,7.10
2019-02-21T08:58:44.728Z,7.00
2019-02-21T09:01:15.632Z,6.80
2019-02-21T09:03:47.708Z,6.50
2019-02-21T09:06:19.761Z,6.60
2019-02-21T09:08:50.820Z,6.60
2019-02-21T09:11:21.975Z,6.50
2019-02-21T09:13:52.493Z,6.40
2019-02-21T09:16:23.443Z,6.10
2019-02-21T09:18:54.484Z,6.20
2019-02-21T09:21:25.601Z,6.00
2019-02-21T09:23:56.897Z,5.90
2019-02-21T09:26:27.997Z,5.80
2019-02-21T09:28:58.956Z,5.80
2019-02-21T09:31:29.887Z,5.80
2019-02-21T09:34:00.828Z,5.90
2019-02-21T09:36:32.774Z,5.70
2019-02-21T09:39:04.620Z,5.50
2019-02-21T09:41:35.278Z,5.40
2019-02-21T09:44:06.547Z,5.30
2019-02-21T09:46:37.457Z,5.20
2019-02-21T09:49:08.400Z,5.20
2019-02-21T09:51:39.440Z,5.20
2019-02-21T09:54:09.932Z,5.10
2019-02-21T09:56:40.508Z,5.10
2019-02-21T09:59:11.065Z,5.10
2019-02-21T10:01:41.670Z,5.10
2019-02-21T10:04:12.728Z,5.10
2019-02-21T10:06:43.756Z,5.10
2019-02-21T10:09:14.830Z,5.00
2019-02-21T10:11:45.636Z,4.90
2019-02-21T10:14:16.389Z,4.90
2019-02-21T10:16:49.542Z,4.80
2019-02-21T10:19:19.612Z,4.80
2019-02-21T10:21:50.509Z,4.70
2019-02-21T10:24:21.588Z,4.70
2019-02-21T10:26:52.605Z,4.60
2019-02-21T10:29:24.584Z,4.50
2019-02-21T10:31:55.611Z,4.30
2019-02-21T10:34:26.371Z,4.40
2019-02-21T10:36:57.276Z,4.40
2019-02-21T10:39:27.837Z,4.40
2019-02-21T10:41:58.760Z,4.20
2019-02-21T10:44:29.258Z,4.10
2019-02-21T10:46:59.733Z,4.10
2019-02-21T10:49:30.788Z,4.00
2019-02-21T10:52:01.389Z,4.00
2019-02-21T10:54:31.953Z,4.00
2019-02-21T10:57:03.068Z,4.10
2019-02-21T10:59:34.120Z,4.00
2019-02-21T11:02:04.638Z,4.10
2019-02-21T11:04:35.696Z,4.10
2019-02-21T11:07:06.736Z,4.30
2019-02-21T11:09:37.665Z,4.40
2019-02-21T11:12:08.588Z,4.50
2019-02-21T11:14:47.190Z,4.50
2019-02-21T11:17:11.904Z,4.50
2019-02-21T11:19:42.775Z,4.60
2019-02-21T11:22:13.801Z,4.60
2019-02-21T11:24:44.872Z,4.70
2019-02-21T11:27:15.891Z,4.40
2019-02-21T11:29:46.834Z,4.40
2019-02-21T11:32:17.774Z,4.20
2019-02-21T11:34:48.602Z,4.20
2019-02-21T11:37:19.528Z,4.10
2019-02-21T11:39:50.108Z,4.10
2019-02-21T11:42:21.110Z,4.10
2019-02-21T11:44:52.068Z,4.10
2019-02-21T11:47:23.095Z,3.90
2019-02-21T11:49:54.038Z,3.90
2019-02-21T11:52:24.525Z,3.90
2019-02-21T11:54:55.166Z,3.90
2019-02-21T11:57:26.132Z,3.70
2019-02-21T11:59:56.980Z,3.60
2019-02-21T12:02:38.444Z,3.60
2019-02-21T12:05:00.640Z,3.70
2019-02-21T12:07:31.625Z,3.70
2019-02-21T12:10:02.295Z,3.60
2019-02-21T12:12:33.208Z,3.60
2019-02-21T12:15:04.262Z,3.50
2019-02-21T12:17:35.302Z,3.50
2019-02-21T12:20:07.969Z,3.40
2019-02-21T12:22:38.820Z,3.30
2019-02-21T12:25:11.293Z,3.40
2019-02-21T12:27:41.930Z,3.40
2019-02-21T12:30:14.937Z,3.30
2019-02-21T12:32:46.062Z,3.30
2019-02-21T12:35:28.805Z,3.40
2019-02-21T12:37:49.725Z,3.40
2019-02-21T12:40:20.728Z,3.40
2019-02-21T12:42:51.653Z,3.40
2019-02-21T12:45:22.444Z,3.30
2019-02-21T12:47:54.266Z,3.20
2019-02-21T12:50:25.233Z,3.30
2019-02-21T12:52:56.136Z,3.20
2019-02-21T12:55:31.673Z,3.20
2019-02-21T12:58:01.722Z,3.10
2019-02-21T13:00:32.674Z,3.20
2019-02-21T13:03:03.304Z,3.10
2019-02-21T13:05:41.120Z,3.20
2019-02-21T13:08:06.998Z,3.20
2019-02-21T13:10:38.081Z,3.20
2019-02-21T13:13:09.200Z,3.10
2019-02-21T13:15:40.156Z,3.10
2019-02-21T13:18:15.902Z,3.00
2019-02-21T13:20:44.517Z,3.10
2019-02-21T13:23:15.465Z,3.10
2019-02-21T13:25:46.357Z,3.20
2019-02-21T13:28:17.302Z,3.20
2019-02-21T13:30:49.482Z,3.10
2019-02-21T13:33:20.502Z,3.00
2019-02-21T13:35:52.961Z,3.10
2019-02-21T13:38:23.913Z,3.10
2019-02-21T13:40:54.895Z,3.10
2019-02-21T13:43:25.800Z,3.00
2019-02-21T13:45:56.850Z,2.90
2019-02-21T13:48:28.842Z,2.90
2019-02-21T13:50:59.753Z,2.90
2019-02-21T13:53:30.566Z,2.90
2019-02-21T13:56:01.541Z,2.80
2019-02-21T13:58:32.175Z,2.70
2019-02-21T14:01:05.696Z,2.70
2019-02-21T14:03:36.860Z,2.70
2019-02-21T14:06:07.754Z,2.60
2019-02-21T14:08:38.568Z,2.60
2019-02-21T14:11:09.328Z,2.50
2019-02-21T14:13:40.354Z,2.50
2019-02-21T14:16:11.322Z,2.60
2019-02-21T14:18:42.395Z,2.50
2019-02-21T14:21:13.292Z,2.40
2019-02-21T14:23:45.196Z,2.30
2019-02-21T14:26:18.078Z,2.40
2019-02-21T14:28:50.228Z,2.30
2019-02-21T14:31:21.148Z,2.30
2019-02-21T14:33:52.083Z,2.30
2019-02-21T14:36:22.596Z,2.30
2019-02-21T14:38:53.446Z,2.30
2019-02-21T14:41:23.987Z,2.40
2019-02-21T14:43:54.902Z,2.40
2019-02-21T14:46:25.775Z,2.40
2019-02-21T14:48:56.894Z,2.30
2019-02-21T14:51:27.850Z,2.30
2019-02-21T14:53:58.880Z,2.20
2019-02-21T14:56:29.384Z,2.20
2019-02-21T14:59:01.064Z,2.30
2019-02-21T15:01:32.120Z,2.30
2019-02-21T15:04:02.725Z,2.30
2019-02-21T15:06:33.802Z,2.30
2019-02-21T15:09:05.860Z,2.20
2019-02-21T15:11:38.035Z,2.20
2019-02-21T15:14:09.062Z,2.20
2019-02-21T15:16:40.021Z,2.10
2019-02-21T15:19:10.948Z,2.00
2019-02-21T15:21:44.641Z,2.00
2019-02-21T15:24:17.806Z,1.90
2019-02-21T15:26:50.752Z,1.90
2019-02-21T15:29:23.905Z,1.90
2019-02-21T15:31:57.289Z,1.90
2019-02-21T15:34:30.130Z,2.00
2019-02-21T15:37:03.409Z,1.90
2019-02-21T15:39:36.465Z,1.80
2019-02-21T15:42:09.396Z,1.80
2019-02-21T15:44:42.186Z,1.80
2019-02-21T15:47:15.461Z,1.80
2019-02-21T15:49:48.761Z,1.80
2019-02-21T15:52:22.844Z,1.80
2019-02-21T15:54:55.876Z,1.70
2019-02-21T15:57:28.783Z,1.50
2019-02-21T16:00:03.394Z,1.60
2019-02-21T16:02:37.312Z,1.70
2019-02-21T16:05:10.618Z,1.60
2019-02-21T16:07:43.986Z,1.60
2019-02-21T16:10:19.201Z,1.60
2019-02-21T16:12:52.535Z,1.60
2019-02-21T16:15:26.248Z,1.50
2019-02-21T16:17:59.429Z,1.50
2019-02-21T16:20:32.336Z,1.40
2019-02-21T16:23:05.773Z,1.50
2019-02-21T16:25:39.165Z,1.40
2019-02-21T16:28:12.526Z,1.40
2019-02-21T16:30:45.387Z,1.40
2019-02-21T16:33:18.416Z,1.40
2019-02-21T16:35:51.362Z,1.50
2019-02-21T16:38:24.405Z,1.40
2019-02-21T16:40:58.449Z,1.60
2019-02-21T16:43:31.221Z,1.60
2019-02-21T16:46:08.071Z,1.40
2019-02-21T16:48:39.617Z,1.30
2019-02-21T16:51:12.673Z,1.20
2019-02-21T16:53:46.080Z,1.20
2019-02-21T16:56:18.983Z,1.20
2019-02-21T16:58:53.055Z,1.20
2019-02-21T17:01:26.378Z,1.30
2019-02-21T17:04:00.278Z,1.30
2019-02-21T17:06:33.172Z,1.10
2019-02-21T17:09:07.090Z,1.10
2019-02-21T17:11:41.342Z,1.10
2019-02-21T17:14:15.396Z,1.00
2019-02-21T17:16:48.303Z,0.90
2019-02-21T17:19:21.329Z,1.00
2019-02-21T17:21:54.881Z,1.00
2019-02-21T17:24:28.308Z,1.30
2019-02-21T17:27:01.397Z,1.10
2019-02-21T17:29:34.428Z,1.00
2019-02-21T17:32:07.417Z,1.10
2019-02-21T17:34:40.414Z,1.10
2019-02-21T17:37:24.603Z,1.10
2019-02-21T17:39:49.720Z,0.90
2019-02-21T17:42:23.730Z,0.60
2019-02-21T17:44:56.725Z,0.50
2019-02-21T17:47:32.595Z,0.60
2019-02-21T17:50:05.076Z,0.60
2019-02-21T17:52:38.417Z,0.90
2019-02-21T17:55:13.406Z,0.80
2019-02-21T17:57:46.820Z,0.80
2019-02-21T18:00:31.013Z,0.90
2019-02-21T18:03:04.412Z,0.80
2019-02-21T18:05:37.860Z,0.70
2019-02-21T18:08:10.904Z,0.50
2019-02-21T18:10:44.004Z,0.50
2019-02-21T18:13:16.807Z,0.50
2019-02-21T18:15:49.816Z,0.40
2019-02-21T18:18:23.721Z,0.30
2019-02-21T18:20:59.360Z,0.30
2019-02-21T18:23:32.556Z,0.40
2019-02-21T18:26:16.212Z,0.30
2019-02-21T18:28:49.571Z,0.40
2019-02-21T18:31:26.799Z,0.40
2019-02-21T18:34:00.501Z,0.60
2019-02-21T18:36:33.945Z,0.60
2019-02-21T18:39:08.555Z,0.50
2019-02-21T18:41:42.125Z,0.50
2019-02-21T18:44:15.488Z,0.40
2019-02-21T18:46:48.720Z,0.40
2019-02-21T18:49:21.764Z,0.40
2019-02-21T18:51:54.850Z,0.40
2019-02-21T18:54:28.214Z,0.40
2019-02-21T18:57:01.284Z,0.40
2019-02-21T18:59:34.209Z,0.30
2019-02-21T19:02:07.255Z,0.30
2019-02-21T19:04:40.299Z,0.30
2019-02-21T19:07:13.310Z,0.50
2019-02-21T19:09:46.130Z,0.40
2019-02-21T19:12:19.190Z,0.40
2019-02-21T19:14:50.678Z,0.30
2019-02-21T19:17:21.272Z,0.10
2019-02-21T19:19:52.257Z,0.20
2019-02-21T19:22:22.795Z,-0.10
2019-02-21T19:24:53.400Z,0.00
2019-02-21T19:27:24.039Z,-0.10
2019-02-21T19:29:54.598Z,-0.10
2019-02-21T19:32:25.264Z,-0.20
2019-02-21T19:34:56.259Z,-0.20
2019-02-21T19:37:27.344Z,0.00
2019-02-21T19:39:57.860Z,-0.10
2019-02-21T19:42:28.484Z,-0.10
2019-02-21T19:44:58.978Z,-0.10
2019-02-21T19:47:29.484Z,-0.20
2019-02-21T19:50:00.332Z,-0.20
2019-02-21T19:52:31.033Z,-0.20
2019-02-21T19:55:01.722Z,-0.10
2019-02-21T19:57:32.427Z,-0.20
2019-02-21T20:00:03.036Z,-0.20
2019-02-21T20:02:35.263Z,-0.20
2019-02-21T20:05:06.632Z,-0.20
2019-02-21T20:07:37.439Z,-0.30
2019-02-21T20:10:08.585Z,-0.30
2019-02-21T20:12:40.301Z,-0.30
2019-02-21T20:15:11.162Z,-0.40
2019-02-21T20:17:41.840Z,-0.50
2019-02-21T20:20:13.480Z,-0.50
2019-02-21T20:22:44.224Z,-0.40
2019-02-21T20:25:14.897Z,-0.60
2019-02-21T20:27:45.572Z,-0.50
2019-02-21T20:30:16.621Z,-0.50
2019-02-21T20:32:47.682Z,-0.50
2019-02-21T20:35:18.255Z,-0.60
2019-02-21T20:37:48.901Z,-0.60
2019-02-21T20:40:19.481Z,-0.70
2019-02-21T20:42:51.009Z,-0.70
2019-02-21T20:45:21.516Z,-0.70
2019-02-21T20:47:52.176Z,-0.60
2019-02-21T20:50:22.819Z,-0.60
2019-02-21T20:52:53.532Z,-0.60
2019-02-21T20:55:24.084Z,-0.70
2019-02-21T20:57:54.892Z,-0.70
2019-02-21T21:00:25.520Z,-0.70
2019-02-21T21:02:56.153Z,-0.90
2019-02-21T21:05:26.793Z,-0.90
2019-02-21T21:07:57.501Z,-0.90
2019-02-21T21:10:28.064Z,-0.90
2019-02-21T21:12:58.749Z,-0.80
2019-02-21T21:15:29.396Z,-0.80
2019-02-21T21:18:00.101Z,-0.80
2019-02-21T21:20:30.616Z,-0.90
2019-02-21T21:23:01.156Z,-1.00
2019-02-21T21:25:32.838Z,-1.10
2019-02-21T21:28:03.445Z,-1.10
2019-02-21T21:30:34.022Z,-0.90
2019-02-21T21:33:04.612Z,-0.80
2019-02-21T21:35:35.325Z,-0.80
2019-02-21T21:38:05.848Z,-0.90
2019-02-21T21:40:36.492Z,-0.90
2019-02-21T21:43:07.052Z,-1.00
2019-02-21T21:45:37.654Z,-1.10
2019-02-21T21:48:08.169Z,-1.10
2019-02-21T21:50:38.653Z,-1.10
2019-02-21T21:53:09.339Z,-1.00
2019-02-21T21:55:40.000Z,-1.00
2019-02-21T21:58:12.898Z,-1.10
2019-02-21T22:00:42.791Z,-1.00
2019-02-21T22:03:13.347Z,-1.10
2019-02-21T22:05:43.833Z,-1.00
2019-02-21T22:08:15.556Z,-1.00
2019-02-21T22:10:46.094Z,-1.10
2019-02-21T22:13:16.760Z,-1.20
2019-02-21T22:15:47.396Z,-1.20
2019-02-21T22:18:18.365Z,-1.30
2019-02-21T22:20:49.759Z,-1.10
2019-02-21T22:23:20.648Z,-1.10
2019-02-21T22:25:51.477Z,-1.20
2019-02-21T22:28:22.951Z,-1.10
2019-02-21T22:30:53.846Z,-1.10
2019-02-21T22:33:26.362Z,-1.10
2019-02-21T22:35:57.596Z,-1.20
2019-02-21T22:38:28.553Z,-1.30
2019-02-21T22:40:59.146Z,-1.50
2019-02-21T22:43:29.784Z,-1.50
2019-02-21T22:46:00.339Z,-1.50
2019-02-21T22:48:30.873Z,-1.50
2019-02-21T22:51:01.371Z,-1.40
2019-02-21T22:53:32.005Z,-1.50
2019-02-21T22:56:02.543Z,-1.40
2019-02-21T22:58:33.171Z,-1.40
2019-02-21T23:01:36.581Z,-1.30
2019-02-21T23:04:46.759Z,-1.40
2019-02-21T23:07:25.267Z,-1.40
2019-02-21T23:09:56.101Z,-1.60
2019-02-21T23:12:26.801Z,-1.70
2019-02-21T23:14:57.480Z,-1.70
2019-02-21T23:17:28.084Z,-1.70
2019-02-21T23:19:58.617Z,-1.80
2019-02-21T23:22:29.251Z,-1.60
2019-02-21T23:24:59.886Z,-1.60
2019-02-21T23:27:30.461Z,-1.60
2019-02-21T23:30:01.145Z,-1.60
2019-02-21T23:32:33.315Z,-1.60
2019-02-21T23:35:04.393Z,-1.60
2019-02-21T23:37:35.505Z,-1.60
2019-02-21T23:40:06.555Z,-1.50
2019-02-21T23:42:37.312Z,-1.50
2019-02-21T23:45:08.254Z,-1.50
2019-02-21T23:47:49.333Z,-1.50
2019-02-21T23:50:12.188Z,-1.50
2019-02-21T23:52:42.887Z,-1.50
2019-02-21T23:55:13.846Z,-1.60
2019-02-21T23:57:44.881Z,-1.50
